Terminal Aerodrome Forecast
Issued by NWS

Home | Current Version | Previous Version | Text Only | Print | Product List | Glossary On
Versions: 1 2 3 4 5 6 7 8 9 10 11 12 13 14 15 16 17 18 19 20
109
FTUS46 KLOX 200006 AAA
TAFLGB
TAF AMD
KLGB 200006Z 2000/2024 27018G28KT P6SM VCSH SCT050 BKN090
      TEMPO 2000/2003 -SHRA SCT025 BKN050
     FM200300 29012G18KT P6SM FEW050 SCT090
     FM200700 30006KT P6SM FEW090
     FM201100 VRB03KT P6SM SKC
     FM202300 29008KT P6SM SKC=

USA.gov is the U.S. government's official web portal to all federal, state and local government web resources and services.